createdAt,value
2017-04-10T00:00:31.340Z,0
2017-04-10T00:01:17.636Z,0
2017-04-10T00:01:58.351Z,0
2017-04-10T00:02:39.031Z,0
2017-04-10T00:03:19.876Z,0
2017-04-10T00:04:01.495Z,0
2017-04-10T00:04:43.171Z,0
2017-04-10T00:05:23.719Z,0
2017-04-10T00:06:04.458Z,0
2017-04-10T00:06:46.132Z,0
2017-04-10T00:07:28.829Z,0
2017-04-10T00:08:09.479Z,0
2017-04-10T00:08:50.234Z,0
2017-04-10T00:09:31.007Z,0
2017-04-10T00:10:11.846Z,0
2017-04-10T00:10:52.497Z,0
2017-04-10T00:11:33.248Z,0
2017-04-10T00:12:14.955Z,0
2017-04-10T00:12:56.621Z,0
2017-04-10T00:13:37.351Z,0
2017-04-10T00:14:18.027Z,0
2017-04-10T00:15:00.736Z,0
2017-04-10T00:15:43.429Z,0
2017-04-10T00:16:25.101Z,0
2017-04-10T00:17:06.764Z,0
2017-04-10T00:17:47.459Z,0
2017-04-10T00:18:28.149Z,0
2017-04-10T00:19:08.764Z,0
2017-04-10T00:19:51.580Z,0
2017-04-10T00:20:33.323Z,0
2017-04-10T00:21:14.059Z,0
2017-04-10T00:21:55.676Z,0
2017-04-10T00:22:36.391Z,0
2017-04-10T00:23:16.986Z,0
2017-04-10T00:23:57.625Z,0
2017-04-10T00:24:38.348Z,0
2017-04-10T00:25:18.929Z,0
2017-04-10T00:25:59.598Z,0
2017-04-10T00:26:40.317Z,0
2017-04-10T00:27:20.898Z,0
2017-04-10T00:28:01.613Z,0
2017-04-10T00:28:42.396Z,0
2017-04-10T00:29:23.073Z,0
2017-04-10T00:30:04.804Z,0
2017-04-10T00:30:45.556Z,0
2017-04-10T00:31:26.329Z,0
2017-04-10T00:32:07.070Z,0
2017-04-10T00:32:47.854Z,0
2017-04-10T00:33:29.642Z,0
2017-04-10T00:34:10.366Z,0
2017-04-10T00:34:52.255Z,0
2017-04-10T00:35:32.996Z,0
2017-04-10T00:36:13.754Z,0
2017-04-10T00:36:56.498Z,0
2017-04-10T00:37:37.081Z,0
2017-04-10T00:38:17.765Z,0
2017-04-10T00:38:58.508Z,0
2017-04-10T00:39:40.258Z,0
2017-04-10T00:40:20.876Z,0
2017-04-10T00:41:01.642Z,0
2017-04-10T00:41:42.298Z,0
2017-04-10T00:42:22.904Z,0
2017-04-10T00:43:03.553Z,0
2017-04-10T00:43:46.298Z,0
2017-04-10T00:44:27.038Z,0
2017-04-10T00:45:07.732Z,0
2017-04-10T00:50:20.644Z,0
2017-04-10T00:51:01.281Z,0
2017-04-10T00:51:42.030Z,0
2017-04-10T00:52:22.689Z,0
2017-04-10T00:53:03.359Z,0
2017-04-10T00:53:43.928Z,0
2017-04-10T00:54:24.645Z,0
2017-04-10T00:55:05.381Z,0
2017-04-10T00:55:46.099Z,0
2017-04-10T00:56:26.678Z,0
2017-04-10T00:57:07.256Z,0
2017-04-10T00:57:47.898Z,0
2017-04-10T00:58:30.593Z,0
2017-04-10T00:59:11.315Z,0
2017-04-10T00:59:56.707Z,0
2017-04-10T01:00:37.438Z,0
2017-04-10T01:01:18.113Z,0
2017-04-10T01:01:58.706Z,0
2017-04-10T01:02:39.458Z,0
2017-04-10T01:03:20.374Z,0
2017-04-10T01:04:02.182Z,0
2017-04-10T01:04:43.893Z,0
2017-04-10T01:05:24.597Z,0
2017-04-10T01:06:05.272Z,0
2017-04-10T01:06:46.000Z,0
2017-04-10T01:07:27.675Z,0
2017-04-10T01:08:09.348Z,0
2017-04-10T01:08:50.017Z,0
2017-04-10T01:09:32.703Z,0
2017-04-10T01:10:13.382Z,0
2017-04-10T01:10:54.120Z,0
2017-04-10T01:11:34.901Z,0
2017-04-10T01:12:15.622Z,0
2017-04-10T01:12:56.285Z,0
2017-04-10T01:13:36.866Z,0
2017-04-10T01:14:18.632Z,0
2017-04-10T01:14:59.365Z,0
2017-04-10T01:15:40.367Z,0
2017-04-10T01:16:23.059Z,0
2017-04-10T01:17:03.787Z,0
2017-04-10T01:17:55.126Z,0
2017-04-10T01:18:35.709Z,0
2017-04-10T01:19:17.408Z,0
2017-04-10T01:19:59.975Z,0
2017-04-10T01:20:40.708Z,0
2017-04-10T01:21:21.269Z,0
2017-04-10T01:22:01.872Z,0
2017-04-10T01:22:42.619Z,0
2017-04-10T01:23:23.198Z,0
2017-04-10T01:24:03.929Z,0
2017-04-10T01:24:44.682Z,0
2017-04-10T01:25:25.259Z,0
2017-04-10T01:26:07.013Z,0
2017-04-10T01:26:47.772Z,0
2017-04-10T01:27:28.527Z,0
2017-04-10T01:28:09.279Z,0
2017-04-10T01:28:50.038Z,0
2017-04-10T01:29:30.804Z,0
2017-04-10T01:30:11.470Z,0
2017-04-10T01:30:53.240Z,0
2017-04-10T01:31:33.996Z,0
2017-04-10T01:32:14.575Z,0
2017-04-10T01:32:55.363Z,0
2017-04-10T01:33:36.071Z,0
2017-04-10T01:34:16.655Z,0
2017-04-10T01:34:57.346Z,0
2017-04-10T01:35:38.121Z,0
2017-04-10T01:36:18.730Z,0
2017-04-10T01:36:59.437Z,0
2017-04-10T01:37:40.178Z,0
2017-04-10T01:38:22.914Z,0
2017-04-10T01:39:03.539Z,0
2017-04-10T01:39:44.194Z,0
2017-04-10T01:40:24.939Z,0
2017-04-10T01:41:08.600Z,0
2017-04-10T01:41:49.166Z,0
2017-04-10T01:42:29.880Z,0
2017-04-10T01:43:10.649Z,0
2017-04-10T01:43:51.385Z,0
2017-04-10T01:44:32.172Z,0
2017-04-10T01:45:12.887Z,0
2017-04-10T01:45:55.634Z,0
2017-04-10T01:46:36.275Z,0
2017-04-10T01:47:22.554Z,0
2017-04-10T01:48:07.795Z,0
2017-04-10T01:48:48.474Z,0
2017-04-10T01:49:29.037Z,0
2017-04-10T01:50:09.747Z,0
2017-04-10T01:50:51.441Z,0
2017-04-10T01:51:32.214Z,0
2017-04-10T01:52:12.767Z,0
2017-04-10T01:52:54.551Z,0
2017-04-10T01:53:35.125Z,0
2017-04-10T01:54:15.813Z,0
2017-04-10T01:54:57.491Z,0
2017-04-10T01:55:38.065Z,0
2017-04-10T01:56:18.834Z,0
2017-04-10T01:56:59.589Z,0
2017-04-10T01:57:40.208Z,0
2017-04-10T01:58:20.984Z,0
2017-04-10T01:59:01.740Z,0
2017-04-10T01:59:42.315Z,0
2017-04-10T02:00:23.060Z,0
2017-04-10T02:01:05.933Z,0
2017-04-10T02:01:46.510Z,0
2017-04-10T02:02:27.251Z,0
2017-04-10T02:03:08.009Z,0
2017-04-10T02:03:50.799Z,0
2017-04-10T02:04:32.614Z,0
2017-04-10T02:05:13.353Z,0
2017-04-10T02:05:54.116Z,0
2017-04-10T02:06:35.881Z,0
2017-04-10T02:07:16.642Z,0
2017-04-10T02:07:59.422Z,0
2017-04-10T02:08:46.155Z,0
2017-04-10T02:09:26.722Z,0
2017-04-10T02:10:08.379Z,0
2017-04-10T02:10:49.139Z,0
2017-04-10T02:11:31.940Z,0
2017-04-10T02:12:12.497Z,0
2017-04-10T02:12:53.228Z,0
2017-04-10T02:13:33.867Z,0
2017-04-10T02:14:15.703Z,0
2017-04-10T02:14:56.292Z,0
2017-04-10T02:15:38.077Z,0
2017-04-10T02:16:18.832Z,0
2017-04-10T02:16:59.522Z,0
2017-04-10T02:17:40.282Z,0
2017-04-10T02:18:21.040Z,0
2017-04-10T02:19:01.891Z,0
2017-04-10T02:19:42.643Z,0
2017-04-10T02:20:23.405Z,0
2017-04-10T02:21:10.101Z,0
2017-04-10T02:21:50.754Z,0
2017-04-10T02:22:32.524Z,0
2017-04-10T02:23:15.335Z,0
2017-04-10T02:23:55.971Z,0
2017-04-10T02:24:38.789Z,0
2017-04-10T02:25:21.485Z,0
2017-04-10T02:26:03.164Z,0
2017-04-10T02:26:43.825Z,0
2017-04-10T02:27:24.568Z,0
2017-04-10T02:28:06.252Z,0
2017-04-10T02:28:47.001Z,0
2017-04-10T02:29:27.757Z,0
2017-04-10T02:30:19.162Z,0
2017-04-10T02:30:59.814Z,0
2017-04-10T02:31:40.574Z,0
2017-04-10T02:32:22.364Z,0
2017-04-10T02:33:03.105Z,0
2017-04-10T02:33:44.786Z,0
2017-04-10T02:34:25.437Z,0
2017-04-10T02:35:07.113Z,0
2017-04-10T02:35:47.767Z,0
2017-04-10T02:36:28.419Z,0
2017-04-10T02:37:08.991Z,0
2017-04-10T02:37:55.601Z,0
2017-04-10T02:38:36.280Z,0
2017-04-10T02:39:16.970Z,0
2017-04-10T02:39:57.595Z,0
2017-04-10T02:40:38.250Z,0
2017-04-10T02:41:19.914Z,0
2017-04-10T02:42:02.550Z,0
2017-04-10T02:42:43.282Z,0
2017-04-10T02:43:23.924Z,0
2017-04-10T02:44:04.588Z,0
2017-04-10T02:44:51.791Z,0
2017-04-10T02:45:34.382Z,0
2017-04-10T02:46:16.048Z,0
2017-04-10T02:47:02.245Z,0
2017-04-10T02:47:42.904Z,0
2017-04-10T02:48:24.587Z,0
2017-04-10T02:49:05.228Z,0
2017-04-10T02:49:45.889Z,0
2017-04-10T02:50:26.559Z,0
2017-04-10T02:51:07.198Z,0
2017-04-10T02:51:47.826Z,0
2017-04-10T02:52:29.546Z,0
2017-04-10T02:53:10.132Z,0
2017-04-10T02:53:57.524Z,0
2017-04-10T02:54:38.135Z,0
2017-04-10T02:55:19.735Z,0
2017-04-10T02:56:00.304Z,0
2017-04-10T02:56:45.530Z,0
2017-04-10T02:57:32.723Z,0
2017-04-10T02:58:13.408Z,0
2017-04-10T02:58:53.986Z,0
2017-04-10T02:59:39.496Z,0
2017-04-10T03:00:20.139Z,0
2017-04-10T03:01:00.827Z,0
2017-04-10T03:01:41.437Z,0
2017-04-10T03:02:32.951Z,0
2017-04-10T03:03:13.620Z,0
2017-04-10T03:03:56.315Z,0
2017-04-10T03:04:42.688Z,0
2017-04-10T03:05:23.340Z,0
2017-04-10T03:06:10.759Z,0
2017-04-10T03:06:51.407Z,0
2017-04-10T03:07:31.998Z,0
2017-04-10T03:08:12.620Z,0
2017-04-10T03:08:53.276Z,0
2017-04-10T03:09:33.918Z,0
2017-04-10T03:10:15.531Z,0
2017-04-10T03:10:56.123Z,0
2017-04-10T03:11:47.549Z,0
2017-04-10T03:12:29.229Z,0
2017-04-10T03:13:11.830Z,0
2017-04-10T03:13:54.520Z,0
2017-04-10T03:14:36.099Z,0
2017-04-10T03:15:17.778Z,0
2017-04-10T03:15:59.448Z,0
2017-04-10T03:16:42.056Z,0
2017-04-10T03:17:23.739Z,0
2017-04-10T03:18:15.268Z,0
2017-04-10T03:18:57.939Z,0
2017-04-10T03:19:38.587Z,0
2017-04-10T03:20:19.255Z,0
2017-04-10T03:21:00.920Z,0
2017-04-10T03:21:41.597Z,0
2017-04-10T03:22:22.184Z,0
2017-04-10T03:23:03.817Z,0
2017-04-10T03:23:45.476Z,0
2017-04-10T03:24:26.050Z,0
2017-04-10T03:25:06.680Z,0
2017-04-10T03:25:47.348Z,0
2017-04-10T03:26:27.927Z,0
2017-04-10T03:27:10.609Z,0
2017-04-10T03:27:52.267Z,0
2017-04-10T03:28:32.831Z,0
2017-04-10T03:29:13.466Z,0
2017-04-10T03:29:56.062Z,0
2017-04-10T03:30:36.613Z,0
2017-04-10T03:31:17.275Z,0
2017-04-10T03:32:09.790Z,0
2017-04-10T03:32:50.362Z,0
2017-04-10T03:33:33.063Z,0
2017-04-10T03:34:14.733Z,0
2017-04-10T03:34:55.334Z,0
2017-04-10T03:35:35.926Z,0
2017-04-10T03:36:17.609Z,0
2017-04-10T03:36:58.185Z,0
2017-04-10T03:37:39.749Z,0
2017-04-10T03:38:22.440Z,0
2017-04-10T03:39:03.128Z,0
2017-04-10T03:39:43.709Z,0
2017-04-10T03:40:25.312Z,0
2017-04-10T03:41:05.962Z,0
2017-04-10T03:41:52.595Z,0
2017-04-10T03:42:33.177Z,0
2017-04-10T03:43:15.798Z,0
2017-04-10T03:43:56.451Z,0
2017-04-10T03:44:37.051Z,0
2017-04-10T03:45:17.619Z,0
2017-04-10T03:45:58.207Z,0
2017-04-10T03:46:39.893Z,0
2017-04-10T03:47:20.582Z,0
2017-04-10T03:48:01.165Z,0
2017-04-10T03:48:46.561Z,0
2017-04-10T03:49:27.207Z,0
2017-04-10T03:50:07.799Z,0
2017-04-10T03:50:48.383Z,0
2017-04-10T03:51:29.085Z,0
2017-04-10T03:52:14.227Z,0
2017-04-10T03:52:56.825Z,0
2017-04-10T03:53:39.456Z,0
2017-04-10T03:54:24.779Z,0
2017-04-10T03:55:07.388Z,0
2017-04-10T03:55:53.768Z,0
2017-04-10T03:56:35.358Z,0
2017-04-10T03:57:16.002Z,0
2017-04-10T03:58:03.723Z,0
2017-04-10T03:58:50.328Z,0
2017-04-10T03:59:30.997Z,0
2017-04-10T04:00:12.647Z,0
2017-04-10T04:00:53.310Z,0
2017-04-10T04:01:33.952Z,0
2017-04-10T04:02:14.608Z,0
2017-04-10T04:02:57.251Z,0
2017-04-10T04:03:37.811Z,0
2017-04-10T04:04:19.437Z,0
2017-04-10T04:05:00.090Z,0
2017-04-10T04:05:40.766Z,0
2017-04-10T04:06:21.321Z,0
2017-04-10T04:07:03.994Z,0
2017-04-10T04:07:45.671Z,0
2017-04-10T04:08:26.301Z,0
2017-04-10T04:09:06.972Z,0
2017-04-10T04:09:48.653Z,0
2017-04-10T04:10:31.359Z,0
2017-04-10T04:11:12.010Z,0
2017-04-10T04:11:52.645Z,0
2017-04-10T04:12:34.352Z,0
2017-04-10T04:13:20.828Z,0
2017-04-10T04:14:03.529Z,0
2017-04-10T04:14:44.184Z,0
2017-04-10T04:15:26.882Z,0
2017-04-10T04:16:13.268Z,0
2017-04-10T04:16:53.924Z,0
2017-04-10T04:17:34.577Z,0
2017-04-10T04:18:27.901Z,0
2017-04-10T04:19:08.582Z,0
2017-04-10T04:19:49.229Z,0
2017-04-10T04:20:30.901Z,0
2017-04-10T04:21:11.542Z,0
2017-04-10T04:21:52.217Z,0
2017-04-10T04:22:48.742Z,0
2017-04-10T04:23:31.440Z,0
2017-04-10T04:24:13.115Z,0
2017-04-10T04:24:54.798Z,0
2017-04-10T04:25:37.403Z,0
2017-04-10T04:26:18.042Z,0
2017-04-10T04:27:00.770Z,0
2017-04-10T04:27:41.357Z,0
2017-04-10T04:28:22.977Z,0
2017-04-10T04:29:03.640Z,0
2017-04-10T04:29:44.196Z,0
2017-04-10T04:30:26.865Z,0
2017-04-10T04:31:08.551Z,0
2017-04-10T04:31:49.119Z,0
2017-04-10T04:32:29.758Z,0
2017-04-10T04:33:15.011Z,0
2017-04-10T04:33:55.736Z,0
2017-04-10T04:34:38.386Z,0
2017-04-10T04:35:20.069Z,0
2017-04-10T04:36:01.724Z,0
2017-04-10T04:36:43.447Z,5
2017-04-10T04:37:25.147Z,5
2017-04-10T04:38:06.776Z,5
2017-04-10T04:38:47.438Z,5
2017-04-10T04:39:28.057Z,5
2017-04-10T04:40:08.741Z,5
2017-04-10T04:40:49.369Z,5
2017-04-10T04:41:30.054Z,5
2017-04-10T04:42:10.716Z,5
2017-04-10T04:42:56.343Z,5
2017-04-10T04:43:36.941Z,5
2017-04-10T04:44:17.544Z,5
2017-04-10T04:45:00.172Z,5
2017-04-10T04:45:46.757Z,10
2017-04-10T04:46:29.489Z,10
2017-04-10T04:47:10.084Z,10
2017-04-10T04:47:52.846Z,10
2017-04-10T04:48:34.613Z,10
2017-04-10T04:49:15.245Z,10
2017-04-10T04:50:00.855Z,10
2017-04-10T04:50:42.477Z,10
2017-04-10T04:51:25.153Z,10
2017-04-10T04:52:05.842Z,15
2017-04-10T04:52:47.574Z,15
2017-04-10T04:53:28.144Z,15
2017-04-10T04:54:10.761Z,15
2017-04-10T04:54:51.409Z,15
2017-04-10T04:55:34.069Z,15
2017-04-10T04:56:14.649Z,15
2017-04-10T04:56:57.255Z,20
2017-04-10T04:57:37.924Z,20
2017-04-10T04:58:19.589Z,20
2017-04-10T04:59:00.243Z,20
2017-04-10T04:59:41.013Z,20
2017-04-10T05:00:21.663Z,20
2017-04-10T05:01:02.305Z,25
2017-04-10T05:01:42.978Z,25
2017-04-10T05:02:24.735Z,25
2017-04-10T05:03:07.441Z,25
2017-04-10T05:03:50.110Z,25
2017-04-10T05:04:30.793Z,30
2017-04-10T05:05:16.260Z,30
2017-04-10T05:05:57.930Z,30
2017-04-10T05:06:45.342Z,30
2017-04-10T05:07:31.844Z,30
2017-04-10T05:08:13.449Z,35
2017-04-10T05:08:54.031Z,35
2017-04-10T05:09:34.717Z,35
2017-04-10T05:10:16.394Z,35
2017-04-10T05:11:02.622Z,35
2017-04-10T05:11:43.178Z,35
2017-04-10T05:12:23.891Z,40
2017-04-10T05:13:04.536Z,40
2017-04-10T05:13:52.107Z,40
2017-04-10T05:14:32.672Z,40
2017-04-10T05:15:13.395Z,40
2017-04-10T05:15:56.073Z,40
2017-04-10T05:16:37.778Z,40
2017-04-10T05:17:18.377Z,40
2017-04-10T05:17:59.086Z,40
2017-04-10T05:18:44.302Z,40
2017-04-10T05:19:26.997Z,40
2017-04-10T05:20:09.712Z,40
2017-04-10T05:20:51.387Z,40
2017-04-10T05:21:32.030Z,45
2017-04-10T05:22:12.692Z,45
2017-04-10T05:22:55.393Z,45
2017-04-10T05:23:36.047Z,45
2017-04-10T05:24:22.321Z,45
2017-04-10T05:25:08.826Z,45
2017-04-10T05:25:50.495Z,45
2017-04-10T05:26:31.159Z,45
2017-04-10T05:27:11.812Z,50
2017-04-10T05:27:53.477Z,50
2017-04-10T05:28:36.200Z,50
2017-04-10T05:29:16.839Z,50
2017-04-10T05:29:57.543Z,50
2017-04-10T05:30:38.246Z,50
2017-04-10T05:31:18.904Z,50
2017-04-10T05:32:01.585Z,55
2017-04-10T05:32:43.205Z,50
2017-04-10T05:33:23.801Z,50
2017-04-10T05:34:05.490Z,55
2017-04-10T05:34:47.165Z,55
2017-04-10T05:48:47.201Z,75
2017-04-10T05:49:27.933Z,80
2017-04-10T05:50:15.338Z,80
2017-04-10T05:50:57.153Z,85
2017-04-10T05:51:39.910Z,90
2017-04-10T05:52:22.177Z,90
2017-04-10T05:53:03.951Z,95
2017-04-10T05:53:45.282Z,95
2017-04-10T05:54:32.010Z,100
2017-04-10T05:55:14.622Z,100
2017-04-10T05:55:55.268Z,100
2017-04-10T05:56:35.922Z,105
2017-04-10T05:57:21.537Z,105
2017-04-10T05:58:02.147Z,105
2017-04-10T05:58:42.813Z,105
2017-04-10T05:59:28.371Z,105
2017-04-10T06:00:09.015Z,110
2017-04-10T06:00:50.715Z,110
2017-04-10T06:01:32.370Z,110
2017-04-10T06:02:17.944Z,110
2017-04-10T06:03:02.161Z,115
2017-04-10T06:03:42.918Z,115
2017-04-10T06:04:23.511Z,115
2017-04-10T06:05:04.159Z,115
2017-04-10T06:05:45.835Z,115
2017-04-10T06:06:26.509Z,115
2017-04-10T06:07:07.108Z,110
2017-04-10T06:07:52.689Z,110
2017-04-10T06:08:37.977Z,110
2017-04-10T06:09:19.665Z,110
2017-04-10T06:10:00.245Z,110
2017-04-10T06:10:42.874Z,110
2017-04-10T06:11:34.416Z,110
2017-04-10T06:12:16.098Z,110
2017-04-10T06:12:56.755Z,110
2017-04-10T06:13:37.588Z,110
2017-04-10T06:14:18.257Z,110
2017-04-10T06:14:58.909Z,110
2017-04-10T06:15:39.569Z,110
2017-04-10T06:16:22.272Z,110
2017-04-10T06:17:02.951Z,115
2017-04-10T06:17:43.562Z,115
2017-04-10T06:18:24.335Z,115
2017-04-10T06:19:21.016Z,120
2017-04-10T06:20:01.812Z,120
2017-04-10T06:20:42.382Z,120
2017-04-10T06:21:29.734Z,125
2017-04-10T06:22:10.497Z,125
2017-04-10T06:22:51.187Z,125
2017-04-10T06:23:31.832Z,125
2017-04-10T06:24:12.485Z,125
2017-04-10T06:24:57.752Z,125
2017-04-10T06:25:38.406Z,125
2017-04-10T06:26:19.052Z,125
2017-04-10T06:26:59.704Z,125
2017-04-10T06:27:40.288Z,125
2017-04-10T06:28:21.097Z,125
2017-04-10T06:29:01.732Z,120
2017-04-10T06:29:42.419Z,115
2017-04-10T06:30:23.003Z,110
2017-04-10T06:31:03.690Z,105
2017-04-10T06:31:44.364Z,95
2017-04-10T06:32:25.038Z,90
2017-04-10T06:33:05.673Z,85
2017-04-10T06:33:46.294Z,85
2017-04-10T06:34:26.960Z,85
2017-04-10T06:35:07.637Z,85
2017-04-10T06:35:48.381Z,85
2017-04-10T06:36:29.015Z,85
2017-04-10T06:37:09.662Z,85
2017-04-10T06:37:51.388Z,85
2017-04-10T06:38:31.966Z,90
2017-04-10T06:39:12.671Z,90
2017-04-10T06:39:53.296Z,90
2017-04-10T06:40:34.915Z,90
2017-04-10T06:41:15.471Z,90
2017-04-10T06:41:56.084Z,90
2017-04-10T06:42:36.728Z,90
2017-04-10T06:43:23.257Z,90
2017-04-10T06:44:03.841Z,90
2017-04-10T06:44:44.544Z,90
2017-04-10T06:45:25.184Z,95
2017-04-10T06:46:06.893Z,100
2017-04-10T06:46:48.571Z,100
2017-04-10T06:47:29.142Z,100
2017-04-10T06:48:09.946Z,95
2017-04-10T06:48:55.510Z,90
2017-04-10T06:49:36.258Z,80
2017-04-10T06:50:21.576Z,75
2017-04-10T06:51:02.183Z,80
2017-04-10T06:51:42.979Z,90
2017-04-10T06:52:25.745Z,100
2017-04-10T06:53:06.312Z,110
2017-04-10T06:53:47.043Z,115
2017-04-10T06:54:29.645Z,125
2017-04-10T06:55:10.721Z,125
2017-04-10T06:55:57.187Z,125
2017-04-10T06:56:38.117Z,120
2017-04-10T06:57:18.766Z,115
2017-04-10T06:57:59.500Z,115
2017-04-10T06:58:46.895Z,115
2017-04-10T06:59:31.345Z,110
2017-04-10T07:00:26.020Z,115
2017-04-10T07:01:07.340Z,115
2017-04-10T07:01:49.576Z,120
2017-04-10T07:02:30.233Z,120
2017-04-10T07:03:10.860Z,115
2017-04-10T07:04:04.249Z,120
2017-04-10T07:04:44.816Z,120
2017-04-10T07:05:26.538Z,125
2017-04-10T07:06:12.944Z,125
2017-04-10T07:06:54.539Z,125
2017-04-10T07:07:35.164Z,125
2017-04-10T07:08:15.995Z,125
2017-04-10T07:09:08.257Z,120
2017-04-10T07:09:49.927Z,120
2017-04-10T07:10:35.292Z,115
2017-04-10T07:11:16.986Z,110
2017-04-10T07:11:57.611Z,110
2017-04-10T07:12:44.212Z,115
2017-04-10T07:13:25.913Z,115
2017-04-10T07:14:06.475Z,110
2017-04-10T07:14:47.098Z,105
2017-04-10T07:15:27.769Z,100
2017-04-10T07:16:08.341Z,100
2017-04-10T07:17:00.713Z,100
2017-04-10T07:17:47.935Z,105
2017-04-10T07:18:29.591Z,110
2017-04-10T07:19:15.881Z,115
2017-04-10T07:20:01.450Z,115
2017-04-10T07:20:54.908Z,115
2017-04-10T07:21:37.511Z,110
2017-04-10T07:22:18.131Z,110
2017-04-10T07:22:58.710Z,110
2017-04-10T07:23:44.186Z,115
2017-04-10T07:24:35.508Z,125
2017-04-10T07:25:16.117Z,130
2017-04-10T07:25:58.749Z,135
2017-04-10T07:26:39.406Z,135
2017-04-10T07:27:19.971Z,140
2017-04-10T07:28:00.610Z,145
2017-04-10T07:28:42.259Z,145
2017-04-10T07:29:22.922Z,150
2017-04-10T07:30:03.588Z,160
2017-04-10T07:30:56.225Z,170
2017-04-10T07:31:38.957Z,180
2017-04-10T07:32:19.677Z,190
2017-04-10T07:33:02.378Z,190
2017-04-10T07:33:53.665Z,185
2017-04-10T07:34:40.260Z,190
2017-04-10T07:35:25.800Z,195
2017-04-10T07:36:17.237Z,210
2017-04-10T07:36:59.956Z,220
2017-04-10T07:37:45.186Z,230
2017-04-10T07:38:25.933Z,230
2017-04-10T07:39:08.582Z,230
2017-04-10T07:39:49.162Z,235
2017-04-10T07:40:42.774Z,240
2017-04-10T07:41:34.967Z,235
2017-04-10T07:42:16.624Z,230
2017-04-10T07:42:57.161Z,230
2017-04-10T07:43:38.790Z,230
2017-04-10T07:44:21.468Z,225
2017-04-10T07:45:02.143Z,225
2017-04-10T07:45:42.732Z,225
2017-04-10T07:46:23.438Z,215
2017-04-10T07:47:08.910Z,205
2017-04-10T07:47:51.639Z,210
2017-04-10T07:48:32.339Z,235
2017-04-10T07:49:13.027Z,250
2017-04-10T07:49:53.637Z,235
2017-04-10T07:50:34.250Z,210
2017-04-10T07:51:14.861Z,185
2017-04-10T07:51:55.525Z,180
2017-04-10T07:52:37.203Z,185
2017-04-10T07:53:18.911Z,195
2017-04-10T07:54:04.249Z,195
2017-04-10T07:54:44.931Z,190
2017-04-10T07:55:30.292Z,195
2017-04-10T07:56:11.971Z,195
2017-04-10T07:56:52.721Z,175
2017-04-10T07:57:35.425Z,180
2017-04-10T07:58:17.106Z,190
2017-04-10T07:59:03.795Z,195
2017-04-10T07:59:45.477Z,180
2017-04-10T08:00:26.128Z,180
2017-04-10T08:01:11.850Z,190
2017-04-10T08:36:25.095Z,160
2017-04-10T08:37:06.817Z,160
2017-04-10T08:37:47.411Z,150
2017-04-10T08:38:32.995Z,145
2017-04-10T08:39:15.693Z,140
2017-04-10T08:39:56.386Z,135
2017-04-10T08:40:36.957Z,140
2017-04-10T08:41:17.649Z,135
2017-04-10T08:41:58.343Z,125
2017-04-10T08:42:56.002Z,120
2017-04-10T08:43:38.803Z,115
2017-04-10T08:44:20.483Z,110
2017-04-10T08:45:01.134Z,105
2017-04-10T08:45:42.836Z,105
2017-04-10T08:46:23.465Z,115
2017-04-10T08:47:04.156Z,130
2017-04-10T08:47:44.890Z,145
2017-04-10T08:48:25.609Z,160
2017-04-10T08:49:07.334Z,160
2017-04-10T08:49:49.112Z,160
2017-04-10T08:50:30.728Z,165
2017-04-10T08:51:13.437Z,165
2017-04-10T08:51:55.233Z,160
2017-04-10T08:52:37.947Z,165
2017-04-10T08:53:18.619Z,170
2017-04-10T08:53:59.225Z,170
2017-04-10T08:54:45.409Z,185
2017-04-10T08:55:26.108Z,190
2017-04-10T08:56:06.839Z,210
2017-04-10T08:56:47.452Z,225
2017-04-10T08:57:30.153Z,235
2017-04-10T08:58:10.784Z,235
2017-04-10T08:58:51.400Z,255
2017-04-10T08:59:31.983Z,265
2017-04-10T09:00:12.667Z,265
2017-04-10T09:00:55.363Z,265
2017-04-10T09:01:37.106Z,275
2017-04-10T09:02:17.734Z,280
2017-04-10T09:02:58.554Z,290
2017-04-10T09:03:44.195Z,290
2017-04-10T09:04:24.825Z,330
2017-04-10T09:05:05.526Z,350
2017-04-10T09:05:46.172Z,350
2017-04-10T09:06:26.806Z,350
2017-04-10T09:07:09.388Z,345
2017-04-10T09:07:52.039Z,340
2017-04-10T09:08:32.677Z,335
2017-04-10T09:09:13.342Z,330
2017-04-10T09:09:53.986Z,300
2017-04-10T09:10:39.659Z,275
2017-04-10T09:11:20.318Z,250
2017-04-10T09:12:03.010Z,235
2017-04-10T09:12:44.692Z,235
2017-04-10T09:13:25.308Z,225
2017-04-10T09:14:07.030Z,205
2017-04-10T09:14:47.697Z,210
2017-04-10T09:15:30.434Z,215
2017-04-10T09:16:13.075Z,220
2017-04-10T09:16:53.755Z,215
2017-04-10T09:17:34.536Z,205
2017-04-10T09:18:15.295Z,195
2017-04-10T09:18:56.007Z,195
2017-04-10T09:19:37.685Z,205
2017-04-10T09:20:18.426Z,205
2017-04-10T09:20:59.046Z,205
2017-04-10T09:21:41.779Z,195
2017-04-10T09:22:22.453Z,180
2017-04-10T09:23:07.655Z,160
2017-04-10T09:23:48.345Z,140
2017-04-10T09:24:30.036Z,130
2017-04-10T09:25:11.730Z,125
2017-04-10T09:25:52.515Z,125
2017-04-10T09:26:35.219Z,130
2017-04-10T09:27:20.721Z,135
2017-04-10T09:28:06.188Z,145
2017-04-10T09:28:52.695Z,155
2017-04-10T09:29:33.356Z,165
2017-04-10T09:30:14.103Z,175
2017-04-10T09:30:55.815Z,180
2017-04-10T09:31:36.540Z,185
2017-04-10T09:32:18.358Z,185
2017-04-10T09:32:59.117Z,175
2017-04-10T09:33:40.855Z,165
2017-04-10T09:34:22.517Z,165
2017-04-10T09:35:03.169Z,170
2017-04-10T09:35:45.931Z,170
2017-04-10T09:36:26.523Z,170
2017-04-10T09:37:07.240Z,175
2017-04-10T09:37:48.027Z,170
2017-04-10T09:38:28.728Z,165
2017-04-10T09:39:09.335Z,165
2017-04-10T09:49:55.835Z,230
2017-04-10T09:50:38.467Z,255
2017-04-10T09:51:19.113Z,270
2017-04-10T09:52:07.230Z,280
2017-04-10T10:05:45.007Z,205
2017-04-10T10:06:25.852Z,180
2017-04-10T10:07:11.425Z,150
2017-04-10T10:07:52.173Z,130
2017-04-10T10:08:37.669Z,105
2017-04-10T10:09:18.282Z,90
2017-04-10T10:10:01.062Z,90
2017-04-10T10:10:43.795Z,95
2017-04-10T10:11:24.486Z,105
2017-04-10T10:12:05.099Z,105
2017-04-10T10:12:45.865Z,105
2017-04-10T10:13:27.658Z,115
2017-04-10T10:14:08.397Z,125
2017-04-10T10:14:49.215Z,130
2017-04-10T10:15:30.948Z,130
2017-04-10T10:16:11.736Z,130
2017-04-10T10:16:57.418Z,130
2017-04-10T10:17:52.861Z,120
2017-04-10T10:18:50.428Z,110
2017-04-10T10:19:41.941Z,110
2017-04-10T10:20:22.689Z,105
2017-04-10T10:21:03.407Z,95
2017-04-10T10:21:49.946Z,80
2017-04-10T10:35:49.422Z,200
2017-04-10T10:36:30.135Z,210
2017-04-10T10:37:10.709Z,210
2017-04-10T10:37:56.274Z,210
2017-04-10T10:38:37.009Z,230
2017-04-10T10:39:17.622Z,250
2017-04-10T10:39:58.332Z,250
2017-04-10T10:40:40.109Z,240
2017-04-10T10:41:20.707Z,225
2017-04-10T10:42:01.435Z,225
2017-04-10T10:42:42.153Z,240
2017-04-10T10:43:22.739Z,270
2017-04-10T10:45:49.267Z,275
2017-04-10T10:46:40.749Z,280
2017-04-10T10:47:21.544Z,300
2017-04-10T10:48:02.267Z,320
2017-04-10T10:48:59.724Z,340
2017-04-10T10:59:04.437Z,205
2017-04-10T10:59:45.150Z,195
2017-04-10T11:00:30.557Z,185
2017-04-10T11:01:27.938Z,165
2017-04-10T11:17:12.108Z,300
2017-04-10T11:17:53.758Z,305
2017-04-10T11:18:34.458Z,295
2017-04-10T11:19:15.078Z,275
2017-04-10T11:19:55.740Z,255
2017-04-10T11:20:37.389Z,240
2017-04-10T11:21:19.078Z,235
2017-04-10T11:21:59.721Z,240
2017-04-10T11:22:41.405Z,245
2017-04-10T11:23:22.077Z,250
2017-04-10T11:24:03.793Z,260
2017-04-10T11:24:44.492Z,270
2017-04-10T11:25:27.163Z,285
2017-04-10T11:26:09.780Z,295
2017-04-10T11:26:55.147Z,300
2017-04-10T11:27:36.889Z,300
2017-04-10T11:28:22.207Z,285
2017-04-10T11:29:08.419Z,275
2017-04-10T11:29:49.025Z,265
2017-04-10T11:30:29.687Z,270
2017-04-10T11:31:12.429Z,275
2017-04-10T11:32:07.918Z,285
2017-04-10T11:32:48.479Z,310
2017-04-10T11:33:29.084Z,315
2017-04-10T11:34:09.750Z,330
2017-04-10T11:34:50.382Z,335
2017-04-10T11:35:31.066Z,345
2017-04-10T11:36:12.720Z,355
2017-04-10T11:36:53.364Z,410
2017-04-10T11:37:35.966Z,385
2017-04-10T11:38:18.669Z,390
2017-04-10T11:38:59.331Z,425
2017-04-10T11:39:56.738Z,455
2017-04-10T11:40:38.441Z,445
2017-04-10T11:41:19.105Z,455
2017-04-10T11:42:00.801Z,435
2017-04-10T11:42:41.484Z,425
2017-04-10T11:43:23.101Z,395
2017-04-10T11:44:16.722Z,375
2017-04-10T11:45:09.297Z,380
2017-04-10T11:46:05.634Z,360
2017-04-10T11:46:57.181Z,370
2017-04-10T11:47:44.649Z,390
2017-04-10T11:48:25.300Z,375
2017-04-10T11:49:10.490Z,370
2017-04-10T11:49:51.059Z,335
2017-04-10T11:50:42.394Z,355
2017-04-10T11:51:23.069Z,320
2017-04-10T11:52:04.881Z,340
2017-04-10T11:52:45.449Z,320
2017-04-10T11:53:26.175Z,310
2017-04-10T11:54:07.933Z,315
2017-04-10T11:54:50.581Z,320
2017-04-10T11:55:31.185Z,370
2017-04-10T11:56:11.875Z,315
2017-04-10T11:56:53.529Z,305
2017-04-10T11:57:34.267Z,310